Dublin, Ireland
Current Conditions -  °F | °C
As of 3:00 AM on Thursday 23 Oct 2014 (Local Time) from EIDW Reporting Station
Drizzle Drizzle  
Wind Chill: 54°   Ceiling: 2300
Heat Index: 54°   Visibility: 6mi
Dew Point: 50°   Wind: 18mph
Humidity: 88%   Direction: 240°WSW
Pressure: 29.94"   Gusts: NA
Location:  53.33°N, 6.25°W
Report Text: EIDW 230300Z 24016KT 9999 -DZ FEW018 BKN023 12/10 Q1014 NOSIG
Loading
Personal Weather Stations






























Interactive Weather Map
Tropical Storm Tracking
New forecast layout! Learn more

10-Day Weather Forecast

Advertisements
Track Severe Weather on mobile